Time;durP1;ratioP1;P1;durP2;ratioP2;P2;SDS_P1;SDS_P2;PMS_P1;PMS_P2;Temp;Humidity;BMP_temperature;BMP_pressure;BME280_temperature;BME280_humidity;BME280_pressure;Samples;Min_cycle;Max_cycle;Signal;HPM_P1;HPM_P2
2024/01/23 00:02:26;;;;;;;0.00;0.00;;;27.30;44.00;;;;;;5021833;28;20224;-41
2024/01/23 00:04:57;;;;;;;0.00;0.00;;;27.30;44.00;;;;;;5029155;28;20204;-44
2024/01/23 00:07:27;;;;;;;0.00;0.00;;;27.30;44.10;;;;;;5028663;28;20215;-41
2024/01/23 00:10:00;;;;;;;0.00;0.00;;;27.30;44.10;;;;;;5029044;28;20200;-41
2024/01/23 00:12:31;;;;;;;0.00;0.00;;;27.30;44.10;;;;;;5028538;28;20614;-42
2024/01/23 00:15:02;;;;;;;0.00;0.00;;;27.20;44.00;;;;;;5028659;28;20200;-44
2024/01/23 00:17:32;;;;;;;0.00;0.00;;;27.20;44.00;;;;;;5029055;28;20237;-43
2024/01/23 00:20:04;;;;;;;0.00;0.00;;;27.20;44.10;;;;;;5028013;28;20206;-48
2024/01/23 00:22:35;;;;;;;0.00;0.00;;;27.20;44.10;;;;;;5028838;28;20224;-41
2024/01/23 00:25:08;;;;;;;0.00;0.00;;;27.20;44.10;;;;;;5027791;28;20215;-41
2024/01/23 00:27:38;;;;;;;0.00;0.00;;;27.20;44.10;;;;;;5028719;28;20208;-42
2024/01/23 00:30:10;;;;;;;0.00;0.00;;;27.20;44.10;;;;;;5027988;28;20204;-41
2024/01/23 00:32:41;;;;;;;0.00;0.00;;;27.10;44.10;;;;;;5028203;28;20779;-42
2024/01/23 00:35:12;;;;;;;0.00;0.00;;;27.10;44.00;;;;;;5027920;28;20219;-46
2024/01/23 00:37:43;;;;;;;0.00;0.00;;;27.10;44.00;;;;;;5028118;28;20622;-44
2024/01/23 00:40:16;;;;;;;0.00;0.00;;;27.10;44.10;;;;;;5027994;28;20214;-44
2024/01/23 00:42:48;;;;;;;0.00;0.00;;;27.10;44.10;;;;;;5028248;28;20223;-47
2024/01/23 00:45:18;;;;;;;0.00;0.00;;;27.10;44.10;;;;;;5027661;28;20200;-48
2024/01/23 00:47:49;;;;;;;0.00;0.00;;;27.10;44.10;;;;;;5027951;28;20660;-48
2024/01/23 00:50:20;;;;;;;0.00;0.00;;;27.10;44.10;;;;;;5027906;28;20208;-44
2024/01/23 00:52:50;;;;;;;0.00;0.00;;;27.00;44.10;;;;;;5027615;28;20255;-46
2024/01/23 00:55:23;;;;;;;0.00;0.00;;;27.00;44.10;;;;;;5019261;28;20214;-44
2024/01/23 00:57:54;;;;;;;0.00;0.00;;;27.00;44.10;;;;;;5023481;28;20240;-43
2024/01/23 01:00:25;;;;;;;0.00;0.00;;;27.00;44.10;;;;;;5027682;28;20204;-48
2024/01/23 01:02:55;;;;;;;0.00;0.00;;;27.00;44.00;;;;;;5027271;28;20220;-45
2024/01/23 01:05:26;;;;;;;0.00;0.00;;;27.00;44.00;;;;;;5020987;28;20204;-50
2024/01/23 01:07:57;;;;;;;0.00;0.00;;;27.00;44.10;;;;;;5027328;28;20204;-47
2024/01/23 01:10:30;;;;;;;0.00;0.00;;;27.00;44.10;;;;;;5027826;28;20416;-42
2024/01/23 01:13:00;;;;;;;0.00;0.00;;;27.00;44.10;;;;;;5026812;28;20216;-45
2024/01/23 01:15:31;;;;;;;0.00;0.00;;;27.00;44.10;;;;;;5026996;28;20204;-41
2024/01/23 01:18:02;;;;;;;0.00;0.00;;;26.90;44.00;;;;;;5027362;28;20239;-45
2024/01/23 01:20:33;;;;;;;0.00;0.00;;;26.90;44.00;;;;;;5027562;28;20203;-41
2024/01/23 01:23:04;;;;;;;0.00;0.00;;;26.90;44.10;;;;;;5026843;28;20250;-42
2024/01/23 01:25:37;;;;;;;0.00;0.00;;;26.90;44.10;;;;;;5027082;28;20215;-49
2024/01/23 01:28:08;;;;;;;0.00;0.00;;;26.90;44.10;;;;;;5027243;28;20208;-41
2024/01/23 01:30:39;;;;;;;0.00;0.00;;;26.90;44.10;;;;;;5027627;28;20204;-42
2024/01/23 01:33:09;;;;;;;0.00;0.00;;;26.90;44.20;;;;;;5026380;28;20231;-41
2024/01/23 01:35:40;;;;;;;0.00;0.00;;;26.90;44.20;;;;;;5027330;28;20215;-42
2024/01/23 01:38:11;;;;;;;0.00;0.00;;;26.90;44.20;;;;;;5025352;28;20220;-43
2024/01/23 01:40:43;;;;;;;0.00;0.00;;;26.90;44.20;;;;;;5026111;28;20196;-41
2024/01/23 01:43:27;;;;;;;0.00;0.00;;;26.80;44.10;;;;;;5027194;28;20220;-43
2024/01/23 01:46:13;;;;;;;0.00;0.00;;;26.80;44.10;;;;;;5026681;28;20262;-44
2024/01/23 01:48:45;;;;;;;0.00;0.00;;;26.80;44.10;;;;;;5027666;28;20203;-46
2024/01/23 01:51:17;;;;;;;0.00;0.00;;;26.80;44.20;;;;;;5027007;28;20763;-46
2024/01/23 01:53:49;;;;;;;0.00;0.00;;;26.80;44.10;;;;;;5026970;28;20212;-44
2024/01/23 01:56:22;;;;;;;0.00;0.00;;;26.80;44.20;;;;;;5026975;28;20204;-41
2024/01/23 01:58:54;;;;;;;0.00;0.00;;;26.70;44.10;;;;;;5027367;28;20208;-41
2024/01/23 02:01:25;;;;;;;0.00;0.00;;;26.80;44.20;;;;;;5019571;28;20590;-41
2024/01/23 02:03:55;;;;;;;0.00;0.00;;;26.70;44.20;;;;;;5026245;28;20220;-41
2024/01/23 02:06:27;;;;;;;0.00;0.00;;;26.70;44.90;;;;;;5019353;28;20578;-42
2024/01/23 02:08:57;;;;;;;0.00;0.00;;;26.70;44.20;;;;;;5026562;28;20208;-45
2024/01/23 02:11:30;;;;;;;0.00;0.00;;;26.70;44.30;;;;;;5027061;28;20582;-43
2024/01/23 02:14:01;;;;;;;0.00;0.00;;;26.70;44.20;;;;;;5026519;28;20722;-44
2024/01/23 02:16:32;;;;;;;0.00;0.00;;;26.70;44.30;;;;;;5027495;28;20211;-44
2024/01/23 02:19:03;;;;;;;0.00;0.00;;;26.60;44.30;;;;;;5026194;28;20199;-47
2024/01/23 02:21:33;;;;;;;0.00;0.00;;;26.60;44.20;;;;;;5026689;28;20687;-47
2024/01/23 02:24:06;;;;;;;0.00;0.00;;;26.60;44.20;;;;;;5026637;28;20224;-44
2024/01/23 02:26:37;;;;;;;0.00;0.00;;;26.60;44.20;;;;;;5026202;28;20200;-44
2024/01/23 02:29:07;;;;;;;0.00;0.00;;;26.60;44.30;;;;;;5029611;28;20207;-47
2024/01/23 02:31:38;;;;;;;0.00;0.00;;;26.60;44.20;;;;;;5031117;28;20204;-45
2024/01/23 02:34:13;;;;;;;0.00;0.00;;;26.60;44.30;;;;;;5031013;28;20543;-43
2024/01/23 02:36:45;;;;;;;0.00;0.00;;;26.60;44.20;;;;;;5031251;28;20202;-41
2024/01/23 02:39:18;;;;;;;0.00;0.00;;;26.50;44.20;;;;;;5031214;28;20196;-43
2024/01/23 02:41:48;;;;;;;0.00;0.00;;;26.50;44.20;;;;;;5031111;28;20200;-41
2024/01/23 02:44:19;;;;;;;0.00;0.00;;;26.50;44.30;;;;;;5033870;28;20647;-45
2024/01/23 02:46:50;;;;;;;0.00;0.00;;;26.50;44.30;;;;;;5035287;28;20192;-41
2024/01/23 02:49:20;;;;;;;0.00;0.00;;;26.50;44.30;;;;;;5035309;28;20563;-44
2024/01/23 02:51:51;;;;;;;0.00;0.00;;;26.50;44.30;;;;;;5034644;28;20204;-44
2024/01/23 02:54:24;;;;;;;0.00;0.00;;;26.50;44.30;;;;;;5034321;28;20219;-44
2024/01/23 02:56:54;;;;;;;0.00;0.00;;;26.40;44.30;;;;;;5034153;28;20207;-43
2024/01/23 02:59:25;;;;;;;0.00;0.00;;;26.40;44.20;;;;;;5035182;28;20668;-45
2024/01/23 03:01:56;;;;;;;0.00;0.00;;;26.40;44.20;;;;;;5034949;28;20200;-41
2024/01/23 03:04:26;;;;;;;0.00;0.00;;;26.40;44.20;;;;;;5033853;28;20193;-41
2024/01/23 03:06:57;;;;;;;0.00;0.00;;;26.40;44.30;;;;;;5034504;28;20203;-43
2024/01/23 03:09:30;;;;;;;0.00;0.00;;;26.40;44.30;;;;;;5034322;28;20192;-43
2024/01/23 03:12:00;;;;;;;0.00;0.00;;;26.40;44.30;;;;;;5031244;28;20574;-51
2024/01/23 03:14:31;;;;;;;0.00;0.00;;;26.30;44.30;;;;;;5028030;28;20200;-44
2024/01/23 03:17:03;;;;;;;0.00;0.00;;;26.30;44.30;;;;;;5029541;28;20199;-43
2024/01/23 03:19:34;;;;;;;0.00;0.00;;;26.30;44.30;;;;;;5028958;28;20747;-46
2024/01/23 03:22:05;;;;;;;0.00;0.00;;;26.30;44.30;;;;;;5029246;28;20774;-44
2024/01/23 03:24:40;;;;;;;0.00;0.00;;;26.30;44.30;;;;;;5028861;28;20244;-47
2024/01/23 03:27:11;;;;;;;0.00;0.00;;;26.30;44.30;;;;;;5029479;28;20210;-44
2024/01/23 03:29:43;;;;;;;0.00;0.00;;;26.30;44.30;;;;;;5029007;28;20200;-43
2024/01/23 03:32:14;;;;;;;0.00;0.00;;;26.20;44.20;;;;;;5029205;28;20224;-47
2024/01/23 03:34:45;;;;;;;0.00;0.00;;;26.30;44.40;;;;;;5037451;22;20267;-45
2024/01/23 03:37:16;;;;;;;0.00;0.00;;;26.20;44.30;;;;;;5011360;28;20548;-48
2024/01/23 03:39:48;;;;;;;0.00;0.00;;;26.20;44.30;;;;;;5008781;28;20212;-49
2024/01/23 03:42:19;;;;;;;0.00;0.00;;;26.20;44.40;;;;;;5009060;28;20623;-47
2024/01/23 03:44:50;;;;;;;0.00;0.00;;;26.20;44.30;;;;;;5009621;28;20211;-46
2024/01/23 03:47:20;;;;;;;0.00;0.00;;;26.20;44.40;;;;;;5008975;28;20230;-47
2024/01/23 03:49:51;;;;;;;0.00;0.00;;;26.20;44.40;;;;;;5009314;28;20204;-46
2024/01/23 03:52:22;;;;;;;0.00;0.00;;;26.20;44.40;;;;;;5009668;28;20247;-47
2024/01/23 03:54:55;;;;;;;0.00;0.00;;;26.20;44.40;;;;;;5008449;28;20217;-46
2024/01/23 03:57:26;;;;;;;0.00;0.00;;;26.10;44.50;;;;;;5009166;28;20229;-47
2024/01/23 03:59:56;;;;;;;0.00;0.00;;;26.10;44.50;;;;;;5008865;28;20204;-47
2024/01/23 04:02:27;;;;;;;0.00;0.00;;;26.10;44.40;;;;;;5009294;28;20239;-47
2024/01/23 04:04:58;;;;;;;0.00;0.00;;;26.10;44.40;;;;;;5008377;28;20360;-45
2024/01/23 04:07:29;;;;;;;0.00;0.00;;;26.10;44.40;;;;;;5009204;28;20211;-46
2024/01/23 04:10:01;;;;;;;0.00;0.00;;;26.10;44.40;;;;;;5009778;28;20204;-48
2024/01/23 04:12:32;;;;;;;0.00;0.00;;;26.10;44.40;;;;;;5009076;28;20275;-47
2024/01/23 04:15:04;;;;;;;0.00;0.00;;;26.10;44.40;;;;;;5009138;28;20645;-46
2024/01/23 04:17:34;;;;;;;0.00;0.00;;;26.10;44.40;;;;;;5008372;28;20755;-46
2024/01/23 04:20:05;;;;;;;0.10;0.10;;;26.10;44.30;;;;;;5009534;28;20288;-48
2024/01/23 04:22:36;;;;;;;0.00;0.00;;;26.10;44.40;;;;;;5008196;28;20220;-45
2024/01/23 04:25:10;;;;;;;0.00;0.00;;;26.00;44.30;;;;;;5008886;28;20200;-47
2024/01/23 04:27:40;;;;;;;0.00;0.00;;;26.00;44.30;;;;;;5008964;28;20208;-47
2024/01/23 04:30:12;;;;;;;0.00;0.00;;;26.00;44.30;;;;;;5008152;28;20656;-47
2024/01/23 04:32:44;;;;;;;0.00;0.00;;;26.00;44.30;;;;;;5008241;28;20225;-48
2024/01/23 04:35:16;;;;;;;0.00;0.00;;;26.00;44.30;;;;;;5026504;23;20231;-44
2024/01/23 04:37:47;;;;;;;0.00;0.00;;;26.00;44.40;;;;;;5028304;28;20242;-45
2024/01/23 04:40:20;;;;;;;0.00;0.00;;;26.00;44.40;;;;;;5028374;28;20282;-43
2024/01/23 04:42:50;;;;;;;0.00;0.00;;;26.00;44.40;;;;;;5027861;28;20227;-45
2024/01/23 04:45:21;;;;;;;0.00;0.00;;;26.00;44.40;;;;;;5028364;28;20211;-44
2024/01/23 04:47:52;;;;;;;0.00;0.00;;;26.00;44.50;;;;;;5027954;28;20211;-43
2024/01/23 04:50:23;;;;;;;0.00;0.00;;;26.00;44.50;;;;;;5028687;28;20208;-44
2024/01/23 04:52:56;;;;;;;0.00;0.00;;;26.00;44.60;;;;;;5027795;28;20232;-43
2024/01/23 04:55:28;;;;;;;0.00;0.00;;;26.00;44.50;;;;;;5027955;28;20215;-47
2024/01/23 04:57:59;;;;;;;0.00;0.00;;;26.00;44.50;;;;;;5027612;28;20240;-44
2024/01/23 05:00:30;;;;;;;0.00;0.00;;;26.00;44.50;;;;;;5028291;28;20608;-43
2024/01/23 05:03:01;;;;;;;0.00;0.00;;;26.00;44.40;;;;;;5028405;28;20231;-44
2024/01/23 05:05:33;;;;;;;0.00;0.00;;;26.00;44.50;;;;;;5029477;28;20196;-45
2024/01/23 05:08:03;;;;;;;0.00;0.00;;;26.00;44.40;;;;;;5031623;28;20250;-47
2024/01/23 05:10:36;;;;;;;0.00;0.00;;;26.00;44.40;;;;;;5032645;28;20195;-45
2024/01/23 05:13:07;;;;;;;0.00;0.00;;;26.00;44.40;;;;;;5031916;28;20223;-44
2024/01/23 05:15:37;;;;;;;0.00;0.00;;;26.00;44.40;;;;;;5032041;28;20676;-45
2024/01/23 05:18:08;;;;;;;0.00;0.00;;;26.00;44.40;;;;;;5031999;28;20307;-43
2024/01/23 05:20:39;;;;;;;0.00;0.00;;;26.00;44.30;;;;;;5032383;28;20192;-44
2024/01/23 05:23:10;;;;;;;0.00;0.00;;;26.00;44.30;;;;;;5032101;28;20451;-44
2024/01/23 05:25:43;;;;;;;0.00;0.00;;;25.90;44.30;;;;;;5032495;28;20234;-43
2024/01/23 05:28:14;;;;;;;0.00;0.00;;;26.00;44.30;;;;;;5032197;28;20200;-43
2024/01/23 05:30:45;;;;;;;0.00;0.00;;;25.90;44.30;;;;;;5032325;28;20200;-43
2024/01/23 05:33:15;;;;;;;0.00;0.00;;;25.90;44.30;;;;;;5031901;28;20222;-44
2024/01/23 05:35:46;;;;;;;0.00;0.00;;;25.90;44.30;;;;;;5032226;28;20216;-44
2024/01/23 05:38:17;;;;;;;0.00;0.00;;;25.90;44.30;;;;;;5031446;28;20223;-43
2024/01/23 05:40:50;;;;;;;0.00;0.00;;;25.90;44.30;;;;;;5019932;28;20227;-43
2024/01/23 05:43:20;;;;;;;0.00;0.00;;;25.90;44.30;;;;;;5031137;28;20259;-43
2024/01/23 05:45:53;;;;;;;0.00;0.00;;;25.90;44.30;;;;;;5030997;28;20687;-45
2024/01/23 05:48:23;;;;;;;0.00;0.00;;;25.90;44.30;;;;;;5031523;28;20204;-47
2024/01/23 05:50:54;;;;;;;0.00;0.00;;;25.90;44.30;;;;;;5031737;28;20644;-45
2024/01/23 05:53:25;;;;;;;0.00;0.00;;;25.80;44.20;;;;;;5031650;28;20219;-46
2024/01/23 05:55:57;;;;;;;0.00;0.00;;;25.80;44.20;;;;;;5031165;28;20652;-44
2024/01/23 05:58:28;;;;;;;0.00;0.00;;;25.90;44.30;;;;;;5031169;28;20231;-47
2024/01/23 06:00:59;;;;;;;0.00;0.00;;;25.80;44.20;;;;;;5031517;28;20567;-44
2024/01/23 06:03:30;;;;;;;0.00;0.00;;;25.80;44.20;;;;;;5025020;28;20297;-45
2024/01/23 06:06:01;;;;;;;0.00;0.00;;;25.80;44.20;;;;;;5026214;28;20204;-44
2024/01/23 06:08:32;;;;;;;0.00;0.00;;;25.80;44.20;;;;;;5027318;28;20205;-43
2024/01/23 06:11:04;;;;;;;0.00;0.00;;;25.80;44.20;;;;;;5026224;28;20204;-47
2024/01/23 06:13:35;;;;;;;0.00;0.00;;;25.80;44.10;;;;;;5019774;28;20695;-44
2024/01/23 06:16:06;;;;;;;0.08;0.08;;;25.80;44.20;;;;;;5026755;28;20204;-48
2024/01/23 06:18:40;;;;;;;0.00;0.00;;;25.80;44.10;;;;;;5021762;28;20390;-46
2024/01/23 06:21:11;;;;;;;0.00;0.00;;;25.70;44.70;;;;;;5033019;28;20203;-47
2024/01/23 06:23:41;;;;;;;0.00;0.00;;;25.70;44.10;;;;;;5033161;28;20227;-46
2024/01/23 06:26:14;;;;;;;0.00;0.00;;;25.70;44.10;;;;;;5032619;28;20200;-46
2024/01/23 06:28:44;;;;;;;0.00;0.00;;;25.70;44.10;;;;;;5033287;28;20196;-45
2024/01/23 06:31:15;;;;;;;0.00;0.00;;;25.70;44.10;;;;;;5033024;28;20208;-44
2024/01/23 06:33:46;;;;;;;0.00;0.00;;;25.70;44.10;;;;;;5033080;28;20224;-44
2024/01/23 06:36:17;;;;;;;0.00;0.00;;;25.60;44.00;;;;;;5031539;23;20259;-46
2024/01/23 06:38:47;;;;;;;0.00;0.00;;;25.60;44.10;;;;;;5013619;28;20228;-47
2024/01/23 06:41:20;;;;;;;0.00;0.00;;;25.60;44.10;;;;;;5012499;28;20219;-47
2024/01/23 06:43:51;;;;;;;0.10;0.10;;;25.60;44.10;;;;;;5013380;28;20220;-47
2024/01/23 06:46:22;;;;;;;0.10;0.10;;;25.60;44.10;;;;;;5013173;28;20218;-50
2024/01/23 06:48:52;;;;;;;0.00;0.00;;;25.50;44.10;;;;;;5009263;28;20201;-48
2024/01/23 06:51:24;;;;;;;0.00;0.00;;;25.60;44.10;;;;;;5013190;28;20656;-46
2024/01/23 06:53:55;;;;;;;0.00;0.00;;;25.50;44.10;;;;;;5012966;28;20239;-47
2024/01/23 06:56:27;;;;;;;0.05;0.05;;;25.50;44.10;;;;;;5012052;28;20687;-47
2024/01/23 06:58:58;;;;;;;0.00;0.00;;;25.50;44.10;;;;;;5012522;28;20621;-48
2024/01/23 07:01:29;;;;;;;0.00;0.00;;;25.50;44.10;;;;;;5013342;28;20215;-49
2024/01/23 07:04:00;;;;;;;0.00;0.00;;;25.50;44.20;;;;;;5013183;28;20771;-45
2024/01/23 07:06:30;;;;;;;0.00;0.00;;;25.40;44.10;;;;;;5012875;28;20292;-45
2024/01/23 07:09:01;;;;;;;0.00;0.00;;;25.50;44.20;;;;;;5012598;28;20204;-47
2024/01/23 07:11:35;;;;;;;0.00;0.00;;;25.40;44.10;;;;;;5012663;28;20701;-46
2024/01/23 07:14:06;;;;;;;0.00;0.00;;;25.40;44.10;;;;;;5012471;28;20220;-47
2024/01/23 07:16:37;;;;;;;0.08;0.08;;;25.40;44.20;;;;;;5006806;28;20381;-48
2024/01/23 07:19:08;;;;;;;0.08;0.08;;;25.30;44.10;;;;;;5017430;28;20594;-46
2024/01/23 07:21:40;;;;;;;0.00;0.00;;;25.40;44.20;;;;;;5017545;28;20205;-45
2024/01/23 07:24:12;;;;;;;0.00;0.00;;;25.30;44.10;;;;;;5017651;28;20251;-46
2024/01/23 07:26:45;;;;;;;0.00;0.00;;;25.30;44.10;;;;;;5017362;28;20199;-45
2024/01/23 07:29:15;;;;;;;0.00;0.00;;;25.30;44.10;;;;;;5016622;28;20199;-47
2024/01/23 07:31:46;;;;;;;0.00;0.00;;;25.30;44.20;;;;;;5012098;28;20199;-46
2024/01/23 07:34:17;;;;;;;0.00;0.00;;;25.30;44.20;;;;;;5013916;28;20573;-46
2024/01/23 07:36:47;;;;;;;0.00;0.00;;;25.30;44.20;;;;;;5025415;22;20224;-44
2024/01/23 07:39:18;;;;;;;0.00;0.00;;;25.30;44.20;;;;;;5014330;28;20701;-45
2024/01/23 07:41:51;;;;;;;0.00;0.00;;;25.20;44.10;;;;;;5023798;28;20192;-44
2024/01/23 07:44:21;;;;;;;0.00;0.00;;;25.20;44.10;;;;;;5033573;28;20203;-44
2024/01/23 07:46:52;;;;;;;0.00;0.00;;;25.20;44.10;;;;;;5033989;28;20200;-45
2024/01/23 07:49:23;;;;;;;0.00;0.00;;;25.20;44.20;;;;;;5018791;28;20200;-45
2024/01/23 07:51:54;;;;;;;0.00;0.00;;;25.20;44.20;;;;;;5013950;28;20205;-45
2024/01/23 07:54:25;;;;;;;0.00;0.00;;;25.20;44.20;;;;;;5013759;28;20201;-46
2024/01/23 07:56:57;;;;;;;0.03;0.03;;;25.10;44.10;;;;;;5014685;28;20649;-45
2024/01/23 07:59:28;;;;;;;0.00;0.00;;;25.20;44.20;;;;;;5013583;28;20232;-45
2024/01/23 08:01:59;;;;;;;0.05;0.05;;;25.10;44.10;;;;;;5014304;28;20197;-46
2024/01/23 08:04:29;;;;;;;0.00;0.00;;;25.10;44.10;;;;;;5014359;28;20203;-46
2024/01/23 08:07:00;;;;;;;0.00;0.00;;;25.10;44.20;;;;;;5013841;28;20197;-46
2024/01/23 08:09:31;;;;;;;0.00;0.00;;;25.10;44.20;;;;;;5013672;28;20201;-46
2024/01/23 08:12:05;;;;;;;0.00;0.00;;;25.10;44.20;;;;;;5013566;28;20197;-46
2024/01/23 08:14:36;;;;;;;0.00;0.00;;;25.00;44.20;;;;;;5013148;28;20656;-48
2024/01/23 08:17:07;;;;;;;0.00;0.00;;;25.00;44.20;;;;;;5012901;28;20203;-46
2024/01/23 08:19:40;;;;;;;0.00;0.00;;;25.00;44.20;;;;;;5012910;28;20228;-44
2024/01/23 08:22:11;;;;;;;0.00;0.00;;;25.00;44.20;;;;;;5011233;28;20213;-45
2024/01/23 08:24:41;;;;;;;0.10;0.10;;;25.00;44.20;;;;;;5009210;28;20208;-47
2024/01/23 08:27:14;;;;;;;0.00;0.00;;;25.00;44.20;;;;;;5008069;28;20205;-49
2024/01/23 08:29:45;;;;;;;0.00;0.00;;;25.00;44.20;;;;;;5008934;28;20550;-47
2024/01/23 08:32:15;;;;;;;0.00;0.00;;;24.90;44.20;;;;;;5008482;28;20221;-47
2024/01/23 08:34:46;;;;;;;0.00;0.00;;;24.90;44.30;;;;;;5009194;28;20569;-49
2024/01/23 08:37:17;;;;;;;0.03;0.03;;;24.90;44.20;;;;;;5007953;28;20574;-46
2024/01/23 08:39:47;;;;;;;0.00;0.00;;;24.90;44.20;;;;;;5009050;28;20232;-47
2024/01/23 08:42:20;;;;;;;0.00;0.00;;;24.90;44.20;;;;;;5007557;28;20221;-44
2024/01/23 08:44:51;;;;;;;0.00;0.00;;;24.90;44.20;;;;;;5008068;28;20201;-48
2024/01/23 08:47:22;;;;;;;0.10;0.10;;;24.90;44.30;;;;;;5007004;28;20204;-46
2024/01/23 08:49:52;;;;;;;0.10;0.10;;;24.90;44.30;;;;;;5008059;28;20201;-46
2024/01/23 08:52:23;;;;;;;0.00;0.00;;;24.80;44.20;;;;;;5007636;28;20255;-48
2024/01/23 08:54:54;;;;;;;0.00;0.00;;;24.80;44.20;;;;;;5008081;28;20209;-47
2024/01/23 08:57:27;;;;;;;0.00;0.00;;;24.80;44.30;;;;;;5007591;28;20506;-46
2024/01/23 08:59:58;;;;;;;0.00;0.00;;;24.80;44.20;;;;;;5008087;28;20229;-45
2024/01/23 09:02:28;;;;;;;0.00;0.00;;;24.80;44.30;;;;;;5009011;28;20220;-45
2024/01/23 09:04:59;;;;;;;0.10;0.10;;;24.70;44.20;;;;;;5007894;28;20201;-47
2024/01/23 09:07:30;;;;;;;0.00;0.00;;;24.70;44.20;;;;;;5006785;28;20212;-47
2024/01/23 09:10:01;;;;;;;0.00;0.00;;;24.70;44.20;;;;;;5006993;28;20201;-48
2024/01/23 09:12:33;;;;;;;0.00;0.00;;;24.70;44.20;;;;;;4999464;28;20231;-46
2024/01/23 09:15:05;;;;;;;0.00;0.00;;;24.70;44.30;;;;;;5008384;28;20213;-45
2024/01/23 09:17:36;;;;;;;0.08;0.08;;;24.70;44.20;;;;;;5007566;28;20258;-44
2024/01/23 09:20:08;;;;;;;0.00;0.00;;;24.70;44.30;;;;;;5007351;28;20271;-47
2024/01/23 09:22:39;;;;;;;0.00;0.00;;;24.60;44.20;;;;;;5007868;28;20229;-48
2024/01/23 09:25:10;;;;;;;0.00;0.00;;;24.60;44.20;;;;;;5007790;28;20307;-49
2024/01/23 09:27:42;;;;;;;0.03;0.03;;;24.60;44.20;;;;;;5007903;28;20220;-47
2024/01/23 09:30:14;;;;;;;0.00;0.00;;;24.60;44.20;;;;;;5006753;28;20201;-48
2024/01/23 09:32:45;;;;;;;0.00;0.00;;;24.50;44.20;;;;;;5007065;28;20232;-46
2024/01/23 09:35:16;;;;;;;0.00;0.00;;;24.60;44.20;;;;;;5019389;23;20229;-47
2024/01/23 09:37:46;;;;;;;0.00;0.00;;;24.50;44.20;;;;;;5007775;28;20215;-45
2024/01/23 09:40:17;;;;;;;0.00;0.00;;;24.50;44.20;;;;;;5007077;28;20233;-46
2024/01/23 09:42:51;;;;;;;0.00;0.00;;;24.50;44.20;;;;;;5006798;28;20665;-46
2024/01/23 09:45:22;;;;;;;0.00;0.00;;;24.50;44.10;;;;;;5006975;28;20896;-46
2024/01/23 09:47:53;;;;;;;0.00;0.00;;;24.50;44.20;;;;;;5007690;28;20602;-47
2024/01/23 09:50:28;;;;;;;0.00;0.00;;;24.40;44.10;;;;;;5006559;28;20225;-46
2024/01/23 09:53:02;;;;;;;0.10;0.10;;;24.40;44.20;;;;;;5007244;28;20235;-48
2024/01/23 09:55:33;;;;;;;0.00;0.00;;;24.40;44.20;;;;;;4999099;28;20235;-47
2024/01/23 09:58:07;;;;;;;0.00;0.00;;;24.40;44.20;;;;;;5006836;28;20205;-48
2024/01/23 10:00:39;;;;;;;0.00;0.00;;;24.40;44.20;;;;;;5000796;28;20240;-47
2024/01/23 10:03:11;;;;;;;0.10;0.10;;;24.40;44.20;;;;;;5007621;28;20228;-46
2024/01/23 10:05:42;;;;;;;0.00;0.00;;;24.30;44.10;;;;;;5006662;28;20208;-47
2024/01/23 10:08:12;;;;;;;0.00;0.00;;;24.30;44.10;;;;;;5006594;28;20208;-48
2024/01/23 10:10:43;;;;;;;0.00;0.00;;;24.30;44.20;;;;;;5007776;28;20200;-48
2024/01/23 10:13:16;;;;;;;0.00;0.00;;;24.30;44.10;;;;;;5006555;28;20236;-52
2024/01/23 10:15:54;;;;;;;0.00;0.00;;;24.30;44.20;;;;;;5007092;28;20204;-46
2024/01/23 10:18:25;;;;;;;0.00;0.00;;;24.30;44.20;;;;;;5006723;28;20204;-47
2024/01/23 10:20:56;;;;;;;0.00;0.00;;;24.30;44.10;;;;;;5006942;28;20229;-50
2024/01/23 10:23:27;;;;;;;0.00;0.00;;;24.30;44.20;;;;;;5006635;28;20220;-49
2024/01/23 10:26:00;;;;;;;0.00;0.00;;;24.20;44.10;;;;;;5006872;28;20700;-48
2024/01/23 10:28:33;;;;;;;0.00;0.00;;;24.20;44.10;;;;;;5007230;28;20247;-49
2024/01/23 10:31:05;;;;;;;0.10;0.10;;;24.20;44.20;;;;;;5006834;28;20204;-48
2024/01/23 10:33:36;;;;;;;0.10;0.10;;;24.20;44.20;;;;;;4999773;28;20316;-49
2024/01/23 10:36:09;;;;;;;0.00;0.00;;;24.20;44.20;;;;;;5029379;23;20235;-41
2024/01/23 10:38:40;;;;;;;0.00;0.00;;;24.10;44.10;;;;;;5026792;28;20601;-45
2024/01/23 10:41:11;;;;;;;0.00;0.00;;;24.10;44.10;;;;;;5026291;28;20235;-45
2024/01/23 10:43:44;;;;;;;0.00;0.00;;;24.10;44.10;;;;;;5026298;28;20239;-46
2024/01/23 10:46:15;;;;;;;0.00;0.00;;;24.10;44.10;;;;;;5026689;28;20672;-45
2024/01/23 10:48:45;;;;;;;0.00;0.00;;;24.10;44.10;;;;;;5026652;28;20203;-45
2024/01/23 10:51:20;;;;;;;0.00;0.00;;;24.10;44.20;;;;;;5026343;28;20204;-46
2024/01/23 10:53:57;;;;;;;0.00;0.00;;;24.00;44.10;;;;;;5022022;28;20228;-47
2024/01/23 10:56:30;;;;;;;0.00;0.00;;;24.00;44.10;;;;;;5025157;28;20660;-43
2024/01/23 10:59:09;;;;;;;0.10;0.10;;;24.00;44.10;;;;;;5026894;28;20372;-47
2024/01/23 11:01:44;;;;;;;0.00;0.00;;;24.00;44.10;;;;;;5018614;28;20210;-48
2024/01/23 11:04:15;;;;;;;0.10;0.10;;;24.00;44.10;;;;;;5026344;28;20208;-46
2024/01/23 11:06:52;;;;;;;0.00;0.00;;;24.00;44.10;;;;;;5029080;28;20196;-49
2024/01/23 11:09:26;;;;;;;0.00;0.00;;;24.00;44.10;;;;;;5029674;28;20212;-47
2024/01/23 11:12:06;;;;;;;0.00;0.00;;;23.90;44.10;;;;;;5030447;28;20208;-46
2024/01/23 11:14:47;;;;;;;0.00;0.00;;;23.90;44.10;;;;;;5030177;28;20207;-48
2024/01/23 11:17:18;;;;;;;0.08;0.08;;;23.90;44.10;;;;;;5030412;28;20211;-48
2024/01/23 11:20:06;;;;;;;0.03;0.03;;;23.90;44.10;;;;;;5029245;28;20228;-49
2024/01/23 11:22:36;;;;;;;0.00;0.00;;;23.80;44.10;;;;;;5029216;28;20833;-48
2024/01/23 11:25:07;;;;;;;0.00;0.00;;;23.80;44.10;;;;;;5028322;28;20192;-47
2024/01/23 11:27:40;;;;;;;0.00;0.00;;;23.80;44.10;;;;;;5028975;28;20411;-44
2024/01/23 11:30:16;;;;;;;0.08;0.08;;;23.80;44.10;;;;;;5028938;28;20214;-42
2024/01/23 11:32:47;;;;;;;0.10;0.10;;;23.80;44.10;;;;;;5028946;28;20223;-42
2024/01/23 11:35:18;;;;;;;0.00;0.00;;;23.80;44.10;;;;;;5029827;28;20223;-46
2024/01/23 11:37:54;;;;;;;0.10;0.10;;;23.80;44.10;;;;;;5030135;28;20211;-42
2024/01/23 11:40:44;;;;;;;0.10;0.10;;;23.70;44.10;;;;;;5033003;28;20223;-53
2024/01/23 11:43:26;;;;;;;0.00;0.00;;;23.70;44.10;;;;;;5031040;28;20216;-50
2024/01/23 11:46:04;;;;;;;0.00;0.00;;;23.70;44.10;;;;;;5033517;28;20200;-52
2024/01/23 11:48:37;;;;;;;0.00;0.00;;;23.70;44.10;;;;;;5033913;28;20204;-52
2024/01/23 11:51:09;;;;;;;0.10;0.10;;;23.70;44.10;;;;;;5034278;28;20219;-52
2024/01/23 11:53:42;;;;;;;0.00;0.00;;;23.70;44.10;;;;;;5034270;28;20216;-50
2024/01/23 11:56:13;;;;;;;0.10;0.10;;;23.60;44.10;;;;;;5034113;28;20200;-50
2024/01/23 11:58:45;;;;;;;0.05;0.05;;;23.60;44.10;;;;;;5033827;28;20207;-50
2024/01/23 12:01:19;;;;;;;0.10;0.10;;;23.60;44.10;;;;;;5033186;28;20224;-50
2024/01/23 12:03:51;;;;;;;0.00;0.00;;;23.60;44.10;;;;;;5033857;28;20218;-49
2024/01/23 12:06:22;;;;;;;0.00;0.00;;;23.50;44.10;;;;;;5034215;28;20563;-46
2024/01/23 12:08:53;;;;;;;0.00;0.00;;;23.50;44.10;;;;;;5033689;28;20672;-46
2024/01/23 12:11:24;;;;;;;0.10;0.10;;;23.50;44.10;;;;;;5032605;28;20583;-50
2024/01/23 12:13:55;;;;;;;0.10;0.10;;;23.50;44.10;;;;;;5032617;28;20582;-50
2024/01/23 12:16:28;;;;;;;0.10;0.10;;;23.50;44.10;;;;;;5029627;28;20199;-51
2024/01/23 12:18:59;;;;;;;0.00;0.00;;;23.50;44.10;;;;;;5032607;28;20200;-52
2024/01/23 12:21:31;;;;;;;0.00;0.00;;;23.50;44.00;;;;;;5030952;28;20216;-48
2024/01/23 12:24:02;;;;;;;0.00;0.00;;;23.40;44.00;;;;;;5032995;28;20204;-51
2024/01/23 12:26:33;;;;;;;0.00;0.00;;;23.40;44.00;;;;;;5033076;28;20196;-48
2024/01/23 12:29:03;;;;;;;0.00;0.00;;;23.40;44.00;;;;;;5033043;28;20234;-52
2024/01/23 12:31:37;;;;;;;0.00;0.00;;;23.40;44.00;;;;;;5032827;28;20196;-49
2024/01/23 12:34:11;;;;;;;0.10;0.10;;;23.40;44.00;;;;;;5030621;28;20578;-49
2024/01/23 12:36:41;;;;;;;0.10;0.10;;;23.40;44.00;;;;;;5033435;28;20196;-50
2024/01/23 12:39:13;;;;;;;0.00;0.00;;;23.40;44.00;;;;;;5033156;28;20191;-47
2024/01/23 12:41:44;;;;;;;0.00;0.00;;;23.40;44.00;;;;;;5030027;28;20231;-49
2024/01/23 12:44:15;;;;;;;0.00;0.00;;;23.30;44.00;;;;;;5032642;28;20667;-50
2024/01/23 12:46:47;;;;;;;0.10;0.10;;;23.30;44.00;;;;;;5030218;28;20193;-48
2024/01/23 12:49:19;;;;;;;0.00;0.00;;;23.30;44.00;;;;;;5032548;28;20215;-50
2024/01/23 12:51:51;;;;;;;0.00;0.00;;;23.30;44.00;;;;;;5029933;28;20233;-46
2024/01/23 12:54:22;;;;;;;0.00;0.00;;;23.30;44.00;;;;;;5032112;28;20196;-50
2024/01/23 12:56:52;;;;;;;0.00;0.00;;;23.30;44.70;;;;;;5032525;28;20215;-47
2024/01/23 12:59:26;;;;;;;0.10;0.10;;;23.30;44.00;;;;;;5032404;28;20200;-52
2024/01/23 13:01:58;;;;;;;0.10;0.10;;;23.20;44.00;;;;;;5031822;28;20281;-49
2024/01/23 13:04:29;;;;;;;0.10;0.10;;;23.20;44.00;;;;;;5030222;28;20188;-47
2024/01/23 13:07:00;;;;;;;0.00;0.00;;;23.20;44.00;;;;;;5032191;28;20203;-47
2024/01/23 13:09:31;;;;;;;0.00;0.00;;;23.20;44.00;;;;;;5032185;28;20247;-51
2024/01/23 13:12:02;;;;;;;0.00;0.00;;;23.20;44.00;;;;;;5032216;28;20211;-48